Time;durP1;ratioP1;P1;durP2;ratioP2;P2;SDS_P1;SDS_P2;PMS_P1;PMS_P2;Temp;Humidity;BMP_temperature;BMP_pressure;BME280_temperature;BME280_humidity;BME280_pressure;Samples;Min_cycle;Max_cycle;Signal;HPM_P1;HPM_P2
2021/01/22 00:00:52;;;;;;;5.30;0.43;;;21.00;95.30;;;;;;4939878;28;20031;-66
2021/01/22 00:03:20;;;;;;;4.47;0.77;;;21.10;95.40;;;;;;4944083;28;20039;-65
2021/01/22 00:05:48;;;;;;;2.33;0.68;;;21.20;95.50;;;;;;4940200;28;20055;-66
2021/01/22 00:08:15;;;;;;;5.70;0.75;;;21.30;95.20;;;;;;4939473;28;20031;-66
2021/01/22 00:10:41;;;;;;;3.45;0.60;;;21.30;95.40;;;;;;4943035;28;20098;-68
2021/01/22 00:13:08;;;;;;;3.38;0.60;;;21.20;95.40;;;;;;4946112;28;20035;-67
2021/01/22 00:15:35;;;;;;;4.22;0.93;;;21.20;95.80;;;;;;4939377;28;20024;-68
2021/01/22 00:18:01;;;;;;;4.18;0.50;;;21.10;95.60;;;;;;4947709;28;20031;-67
2021/01/22 00:20:28;;;;;;;5.57;0.82;;;20.90;95.80;;;;;;4952768;28;20042;-67
2021/01/22 00:22:55;;;;;;;11.30;0.80;;;20.80;96.00;;;;;;4946666;28;20023;-68
2021/01/22 00:25:21;;;;;;;6.13;0.98;;;20.80;96.10;;;;;;4947203;28;20394;-68
2021/01/22 00:27:48;;;;;;;10.13;1.02;;;20.60;96.20;;;;;;4951834;28;20058;-68
2021/01/22 00:30:15;;;;;;;3.08;0.75;;;20.50;96.50;;;;;;4951134;28;20085;-66
2021/01/22 00:32:42;;;;;;;3.85;1.02;;;20.40;96.60;;;;;;4942834;28;20038;-68
2021/01/22 00:35:09;;;;;;;6.78;1.38;;;20.20;97.20;;;;;;4944232;28;20393;-67
2021/01/22 00:37:35;;;;;;;4.95;1.00;;;20.10;97.50;;;;;;4944398;28;20028;-68
2021/01/22 00:40:03;;;;;;;2.97;0.70;;;19.80;98.10;;;;;;4942673;28;20059;-68
2021/01/22 00:42:30;;;;;;;4.95;0.82;;;19.70;98.40;;;;;;4943472;28;20110;-68
2021/01/22 00:44:57;;;;;;;6.82;0.98;;;19.50;98.80;;;;;;4944794;28;20043;-68
2021/01/22 00:47:23;;;;;;;3.63;1.75;;;19.40;99.10;;;;;;4946535;28;20063;-66
2021/01/22 00:49:50;;;;;;;9.73;0.93;;;19.20;99.70;;;;;;4947613;28;20324;-67
2021/01/22 00:52:17;;;;;;;4.53;1.35;;;19.10;99.90;;;;;;4950550;28;20014;-67
2021/01/22 00:54:43;;;;;;;8.80;1.02;;;19.00;99.90;;;;;;4958822;28;20295;-67
2021/01/22 00:57:10;;;;;;;8.60;1.73;;;18.80;99.90;;;;;;4953903;28;20026;-66
2021/01/22 00:59:37;;;;;;;5.60;1.20;;;18.70;99.90;;;;;;4958618;28;20058;-66
2021/01/22 01:02:03;;;;;;;3.45;0.75;;;18.60;99.90;;;;;;4950152;28;20200;-66
2021/01/22 01:04:30;;;;;;;12.35;1.63;;;18.60;99.90;;;;;;4942341;28;20052;-66
2021/01/22 01:06:57;;;;;;;5.28;0.90;;;18.50;99.90;;;;;;4942178;28;20503;-68
2021/01/22 01:09:23;;;;;;;4.20;1.17;;;18.50;99.90;;;;;;4942514;28;20038;-66
2021/01/22 01:11:50;;;;;;;7.95;1.23;;;18.40;99.90;;;;;;4943190;28;20019;-67
2021/01/22 01:14:17;;;;;;;16.52;2.60;;;18.30;99.90;;;;;;4950262;28;20038;-68
2021/01/22 01:16:44;;;;;;;5.65;1.60;;;18.20;99.90;;;;;;4941929;28;20378;-67
2021/01/22 01:19:11;;;;;;;6.88;1.73;;;18.10;99.90;;;;;;4942849;28;20097;-67
2021/01/22 01:21:37;;;;;;;8.18;1.70;;;17.90;99.90;;;;;;4941080;28;20031;-66
2021/01/22 01:24:04;;;;;;;11.13;1.48;;;17.80;99.90;;;;;;4939795;28;20032;-66
2021/01/22 01:26:31;;;;;;;7.43;1.70;;;17.70;99.90;;;;;;4943225;28;20023;-67
2021/01/22 01:28:58;;;;;;;10.60;1.50;;;17.60;99.90;;;;;;4942601;28;20303;-66
2021/01/22 01:31:24;;;;;;;4.93;1.38;;;17.50;99.90;;;;;;4945738;28;20023;-67
2021/01/22 01:34:02;;;;;;;10.93;2.33;;;17.40;99.90;;;;;;4943000;28;20016;-68
2021/01/22 01:36:29;;;;;;;12.55;1.08;;;17.30;99.90;;;;;;4943228;28;20451;-67
2021/01/22 01:38:55;;;;;;;9.50;1.40;;;17.20;99.90;;;;;;4947235;28;20134;-68
2021/01/22 01:41:23;;;;;;;4.85;1.85;;;17.10;99.90;;;;;;4948032;28;20089;-67
2021/01/22 01:43:50;;;;;;;5.40;1.17;;;16.90;99.90;;;;;;4961285;28;20091;-67
2021/01/22 01:48:52;;;;;;;4.35;1.30;;;16.80;99.90;;;;;;5051407;23;20432;-67
2021/01/22 01:51:18;;;;;;;6.75;1.85;;;16.70;99.90;;;;;;4988530;28;20026;-66
2021/01/22 01:53:45;;;;;;;4.75;1.40;;;16.70;99.90;;;;;;4989643;28;20052;-67
2021/01/22 01:56:12;;;;;;;5.70;1.20;;;16.70;99.90;;;;;;4994817;28;20066;-67
2021/01/22 01:58:39;;;;;;;6.72;1.25;;;16.70;99.90;;;;;;4994168;28;20038;-66
2021/01/22 02:01:08;;;;;;;8.98;1.85;;;16.70;99.90;;;;;;4987751;28;20034;-67
2021/01/22 02:03:35;;;;;;;7.10;1.50;;;16.70;99.90;;;;;;4982248;28;20113;-67
2021/01/22 02:06:04;;;;;;;7.25;0.93;;;16.70;99.90;;;;;;4979476;28;20420;-66
2021/01/22 02:08:32;;;;;;;8.73;1.00;;;16.60;99.90;;;;;;4985204;28;20069;-66
2021/01/22 02:11:01;;;;;;;8.70;1.53;;;16.50;99.90;;;;;;4982517;28;20572;-66
2021/01/22 02:13:31;;;;;;;13.18;2.72;;;16.50;99.90;;;;;;4982887;28;21168;-66
2021/01/22 02:16:01;;;;;;;7.10;1.58;;;16.40;99.90;;;;;;4985469;28;20456;-67
2021/01/22 02:18:29;;;;;;;72.50;23.17;;;16.40;99.90;;;;;;4983296;28;20038;-66
2021/01/22 02:21:07;;;;;;;38.45;12.93;;;16.30;99.90;;;;;;4983130;28;20059;-66
2021/01/22 02:23:36;;;;;;;34.35;8.77;;;15.90;99.90;;;;;;4984214;28;20077;-66
2021/01/22 02:26:22;;;;;;;;;;;15.70;99.90;;;;;;4981191;28;20044;-66
2021/01/22 02:28:52;;;;;;;33.28;11.10;;;15.70;99.90;;;;;;4944394;28;19917;-66
2021/01/22 02:31:20;;;;;;;10.27;1.98;;;15.80;99.90;;;;;;4982535;28;20447;-67
2021/01/22 02:33:48;;;;;;;17.15;4.93;;;15.90;99.90;;;;;;4983071;28;20042;-66
2021/01/22 02:36:18;;;;;;;31.58;10.10;;;15.90;99.90;;;;;;4981867;28;20034;-66
2021/01/22 02:38:48;;;;;;;37.17;11.73;;;15.90;99.90;;;;;;4984297;28;20304;-66
2021/01/22 02:41:19;;;;;;;25.08;6.65;;;15.80;99.90;;;;;;4966861;28;20050;-66
2021/01/22 02:43:48;;;;;;;11.93;4.10;;;15.50;99.90;;;;;;4967169;28;20061;-66
2021/01/22 02:46:16;;;;;;;15.23;4.22;;;15.20;99.90;;;;;;4962789;28;20402;-65
2021/01/22 02:48:44;;;;;;;12.15;4.28;;;15.10;99.90;;;;;;4962759;28;20628;-65
2021/01/22 02:51:12;;;;;;;13.75;4.57;;;15.00;99.90;;;;;;4960902;28;20053;-65
2021/01/22 02:53:40;;;;;;;18.77;5.17;;;14.90;99.90;;;;;;4961306;28;20027;-66
2021/01/22 02:56:29;;;;;;;13.27;3.70;;;14.80;99.90;;;;;;4957076;28;20398;-67
2021/01/22 02:59:36;;;;;;;14.73;3.00;;;14.70;99.90;;;;;;4956652;28;20121;-67
2021/01/22 03:02:36;;;;;;;14.00;2.53;;;14.70;99.90;;;;;;4938373;28;20041;-66
2021/01/22 03:05:05;;;;;;;9.35;2.00;;;14.70;99.90;;;;;;4956808;28;20301;-66
2021/01/22 03:08:06;;;;;;;9.35;1.98;;;14.70;99.90;;;;;;4959066;28;20031;-67
2021/01/22 03:10:37;;;;;;;9.25;2.40;;;14.70;99.90;;;;;;4961460;28;20090;-65
2021/01/22 03:13:05;;;;;;;14.50;2.13;;;14.80;99.90;;;;;;4959065;28;20041;-68
2021/01/22 03:15:38;;;;;;;17.17;6.40;;;15.00;99.90;;;;;;4954260;28;20031;-67
2021/01/22 03:18:19;;;;;;;21.23;8.35;;;14.90;99.90;;;;;;4957728;28;20035;-66
2021/01/22 03:20:48;;;;;;;20.45;6.32;;;14.70;99.90;;;;;;4957898;28;20114;-66
2021/01/22 03:23:19;;;;;;;9.65;2.10;;;14.50;99.90;;;;;;4962244;28;20035;-67
2021/01/22 03:25:46;;;;;;;7.90;1.92;;;14.40;99.90;;;;;;4961007;28;20069;-67
2021/01/22 03:28:14;;;;;;;6.95;1.23;;;14.30;99.90;;;;;;4955345;28;20027;-66
2021/01/22 03:30:41;;;;;;;6.53;1.40;;;14.30;99.90;;;;;;4956438;28;20028;-68
2021/01/22 03:33:08;;;;;;;6.05;1.23;;;14.20;99.90;;;;;;4957523;28;20027;-66
2021/01/22 03:35:34;;;;;;;4.55;1.17;;;14.10;99.90;;;;;;4960309;28;20098;-67
2021/01/22 03:38:01;;;;;;;5.50;1.10;;;14.10;99.90;;;;;;4954191;28;20031;-66
2021/01/22 03:40:28;;;;;;;6.75;1.25;;;14.00;99.90;;;;;;4955730;28;20031;-67
2021/01/22 03:42:54;;;;;;;9.43;2.22;;;14.10;99.90;;;;;;4953667;28;20038;-68
2021/01/22 03:45:21;;;;;;;5.05;2.17;;;14.00;99.90;;;;;;4964218;28;20023;-67
2021/01/22 03:47:48;;;;;;;9.90;2.45;;;14.00;99.90;;;;;;4964402;28;20046;-69
2021/01/22 03:50:15;;;;;;;7.65;1.52;;;14.00;99.90;;;;;;4958057;28;20031;-68
2021/01/22 03:52:42;;;;;;;7.50;2.22;;;14.00;99.90;;;;;;4957218;28;20023;-67
2021/01/22 03:55:09;;;;;;;6.70;1.52;;;13.90;99.90;;;;;;4958550;28;20033;-67
2021/01/22 03:57:35;;;;;;;7.47;1.50;;;13.90;99.90;;;;;;4956546;28;20021;-68
2021/01/22 04:00:04;;;;;;;4.45;1.65;;;13.80;99.90;;;;;;4959751;28;20125;-67
2021/01/22 04:02:31;;;;;;;7.20;1.85;;;13.80;99.90;;;;;;4965019;28;20114;-68
2021/01/22 04:04:57;;;;;;;9.02;1.63;;;13.80;99.90;;;;;;4972038;28;20042;-68
2021/01/22 04:07:24;;;;;;;5.82;2.25;;;13.80;99.90;;;;;;4972365;28;20337;-68
2021/01/22 04:09:51;;;;;;;10.38;1.88;;;13.90;99.90;;;;;;4976078;28;20030;-67
2021/01/22 04:12:17;;;;;;;4.00;1.70;;;13.80;99.90;;;;;;4975194;28;20684;-68
2021/01/22 04:14:44;;;;;;;8.77;1.90;;;13.80;99.90;;;;;;4960505;28;20037;-68
2021/01/22 04:17:10;;;;;;;10.65;2.40;;;13.90;99.90;;;;;;4962519;28;20016;-67
2021/01/22 04:19:37;;;;;;;8.15;2.67;;;14.00;99.90;;;;;;4962684;28;20035;-68
2021/01/22 04:22:04;;;;;;;7.93;1.38;;;14.10;99.90;;;;;;4968876;28;20082;-67
2021/01/22 04:24:30;;;;;;;4.47;1.42;;;14.20;99.90;;;;;;4970146;28;20022;-68
2021/01/22 04:26:57;;;;;;;15.73;3.00;;;14.10;99.90;;;;;;4970506;28;20042;-68
2021/01/22 04:29:24;;;;;;;4.93;1.80;;;13.90;99.90;;;;;;4964724;28;20209;-67
2021/01/22 04:31:50;;;;;;;3.83;1.60;;;13.80;99.90;;;;;;4962072;28;20042;-70
2021/01/22 04:34:17;;;;;;;7.57;2.25;;;13.70;99.90;;;;;;4967742;28;20182;-68
2021/01/22 04:36:44;;;;;;;12.40;2.58;;;13.60;99.90;;;;;;4968085;28;20031;-67
2021/01/22 04:39:10;;;;;;;6.45;1.73;;;13.50;99.90;;;;;;4965725;28;20043;-69
2021/01/22 04:41:37;;;;;;;6.20;1.80;;;13.40;99.90;;;;;;4961021;28;20035;-67
2021/01/22 04:44:04;;;;;;;5.13;1.90;;;13.40;99.90;;;;;;4965867;28;20087;-68
2021/01/22 04:46:37;;;;;;;6.32;1.55;;;13.40;99.90;;;;;;4972188;28;20053;-70
2021/01/22 04:49:05;;;;;;;20.02;2.42;;;13.60;99.90;;;;;;4967813;28;20043;-69
2021/01/22 04:51:35;;;;;;;9.60;2.33;;;13.50;99.90;;;;;;4965768;28;20101;-69
2021/01/22 04:54:29;;;;;;;9.68;2.30;;;13.40;99.90;;;;;;4966473;28;21710;-69
2021/01/22 04:56:59;;;;;;;8.38;2.30;;;13.30;99.90;;;;;;4966785;28;20390;-68
2021/01/22 04:59:31;;;;;;;8.82;2.22;;;13.30;99.90;;;;;;4959563;28;20350;-68
2021/01/22 05:02:00;;;;;;;17.15;4.60;;;13.20;99.90;;;;;;4964534;28;20042;-69
2021/01/22 05:04:28;;;;;;;13.85;5.97;;;13.20;99.90;;;;;;4967754;28;20090;-70
2021/01/22 05:06:55;;;;;;;12.02;3.28;;;13.20;99.90;;;;;;4966005;28;20126;-69
2021/01/22 05:09:23;;;;;;;10.23;2.03;;;13.20;99.90;;;;;;4969931;28;20113;-69
2021/01/22 05:11:54;;;;;;;11.02;2.50;;;13.10;99.90;;;;;;4967220;28;20039;-70
2021/01/22 05:14:21;;;;;;;10.63;2.88;;;13.10;99.90;;;;;;4965619;28;20039;-68
2021/01/22 05:17:00;;;;;;;12.70;2.95;;;13.10;99.90;;;;;;4965823;28;20317;-69
2021/01/22 05:19:27;;;;;;;8.27;2.30;;;12.90;99.90;;;;;;4968800;28;20071;-68
2021/01/22 05:21:54;;;;;;;11.27;3.03;;;12.80;99.90;;;;;;4972287;28;20045;-69
2021/01/22 05:24:22;;;;;;;10.48;2.53;;;12.80;99.90;;;;;;4966764;28;20031;-68
2021/01/22 05:27:03;;;;;;;10.43;3.67;;;12.70;99.90;;;;;;4963253;28;20640;-69
2021/01/22 05:29:31;;;;;;;9.32;1.92;;;12.70;99.90;;;;;;4959445;28;20035;-68
2021/01/22 05:31:57;;;;;;;5.18;1.90;;;12.60;99.90;;;;;;4971561;28;20050;-68
2021/01/22 05:34:45;;;;;;;14.15;3.15;;;12.60;99.90;;;;;;4968199;28;20034;-68
2021/01/22 05:37:12;;;;;;;7.28;2.33;;;12.60;99.90;;;;;;4968555;28;20074;-68
2021/01/22 05:39:39;;;;;;;8.63;2.45;;;12.60;99.90;;;;;;4966638;28;20066;-67
2021/01/22 05:42:07;;;;;;;10.18;3.25;;;12.50;99.90;;;;;;4971038;28;20109;-68
2021/01/22 05:44:34;;;;;;;5.63;2.25;;;12.50;99.90;;;;;;4967388;28;20593;-69
2021/01/22 05:47:03;;;;;;;9.15;2.80;;;12.50;99.90;;;;;;4967902;28;20039;-69
2021/01/22 05:49:30;;;;;;;8.18;3.60;;;12.50;99.90;;;;;;4966643;28;20031;-69
2021/01/22 05:51:57;;;;;;;9.57;2.63;;;12.50;99.90;;;;;;4967118;28;20049;-70
2021/01/22 05:54:37;;;;;;;9.00;2.40;;;12.50;99.90;;;;;;4967352;28;20272;-68
2021/01/22 05:57:05;;;;;;;8.80;3.00;;;12.60;99.90;;;;;;4964369;28;20114;-70
2021/01/22 05:59:34;;;;;;;12.93;3.05;;;12.70;99.90;;;;;;4967687;28;20035;-68
2021/01/22 06:02:20;;;;;;;9.90;2.45;;;12.80;99.90;;;;;;4967148;28;20114;-68
2021/01/22 06:05:10;;;;;;;10.95;3.45;;;12.90;99.90;;;;;;4966104;28;20089;-70
2021/01/22 06:07:39;;;;;;;9.20;2.55;;;12.80;99.90;;;;;;4963676;28;20611;-69
2021/01/22 06:10:36;;;;;;;4.45;2.47;;;12.70;99.90;;;;;;4970887;28;20018;-68
2021/01/22 06:13:06;;;;;;;6.65;2.60;;;12.60;99.90;;;;;;4970249;28;20046;-70
2021/01/22 06:15:33;;;;;;;6.78;2.25;;;12.50;99.90;;;;;;4973164;28;20057;-68
2021/01/22 06:18:02;;;;;;;11.30;2.55;;;12.50;99.90;;;;;;4968353;28;20050;-69
2021/01/22 06:20:30;;;;;;;5.65;2.50;;;12.40;99.90;;;;;;4956697;28;20039;-69
2021/01/22 06:23:18;;;;;;;10.35;2.92;;;12.30;99.90;;;;;;4965205;28;20364;-68
2021/01/22 06:25:44;;;;;;;6.15;2.58;;;12.20;99.90;;;;;;4969573;28;20031;-69
2021/01/22 06:28:11;;;;;;;12.43;3.67;;;12.20;99.90;;;;;;4956444;28;20027;-68
2021/01/22 06:30:40;;;;;;;7.85;3.65;;;12.40;99.90;;;;;;4956431;28;20027;-71
2021/01/22 06:33:07;;;;;;;8.63;3.97;;;12.50;99.90;;;;;;4965135;28;20494;-69
2021/01/22 06:35:35;;;;;;;8.05;3.35;;;12.60;99.90;;;;;;4957090;28;20067;-69
2021/01/22 06:38:03;;;;;;;9.60;3.00;;;12.70;99.90;;;;;;4959510;28;20110;-71
2021/01/22 06:40:30;;;;;;;6.70;3.05;;;12.70;99.90;;;;;;4965839;28;20035;-68
2021/01/22 06:42:57;;;;;;;10.55;3.97;;;12.70;99.90;;;;;;4957893;28;20402;-69
2021/01/22 06:45:24;;;;;;;9.25;3.30;;;12.70;99.90;;;;;;4969952;28;20062;-69
2021/01/22 06:48:07;;;;;;;6.07;2.70;;;12.80;99.90;;;;;;4956107;28;20063;-69
2021/01/22 06:50:35;;;;;;;8.75;3.42;;;12.90;99.90;;;;;;4961624;28;20645;-67
2021/01/22 06:53:05;;;;;;;6.60;3.33;;;12.70;99.90;;;;;;4964024;28;20034;-68
2021/01/22 06:55:32;;;;;;;7.35;2.90;;;12.70;99.90;;;;;;4958668;28;20038;-69
2021/01/22 06:58:31;;;;;;;10.98;3.35;;;12.70;99.90;;;;;;4956336;28;20082;-71
2021/01/22 07:01:03;;;;;;;7.70;3.10;;;12.80;99.90;;;;;;4941579;28;20047;-68
2021/01/22 07:03:38;;;;;;;12.10;4.05;;;12.80;99.90;;;;;;4967769;28;20119;-68
2021/01/22 07:06:30;;;;;;;12.25;3.00;;;12.80;99.90;;;;;;4958609;28;20027;-69
2021/01/22 07:08:58;;;;;;;11.57;4.22;;;12.70;99.90;;;;;;4955144;28;20047;-68
2021/01/22 07:11:25;;;;;;;5.13;3.28;;;12.60;99.90;;;;;;4955965;28;20069;-68
2021/01/22 07:13:53;;;;;;;12.80;3.60;;;12.50;99.90;;;;;;4957703;28;20058;-68
2021/01/22 07:16:20;;;;;;;9.60;4.13;;;12.50;99.90;;;;;;4958651;28;20429;-69
2021/01/22 07:18:52;;;;;;;14.18;6.88;;;12.50;99.90;;;;;;4960521;28;20035;-68
2021/01/22 07:21:31;;;;;;;13.23;6.18;;;12.60;99.90;;;;;;4954970;28;20046;-68
2021/01/22 07:24:07;;;;;;;13.40;6.70;;;12.70;99.90;;;;;;4958378;28;20039;-69
2021/01/22 07:26:40;;;;;;;23.25;8.10;;;12.80;99.90;;;;;;4961198;28;20050;-68
2021/01/22 07:29:23;;;;;;;23.02;8.48;;;12.80;99.90;;;;;;4963869;28;20142;-69
2021/01/22 07:31:56;;;;;;;27.15;10.13;;;12.80;99.90;;;;;;4963680;28;20026;-69
2021/01/22 07:34:43;;;;;;;27.05;11.60;;;12.80;99.90;;;;;;4956219;28;20101;-69
2021/01/22 07:37:21;;;;;;;45.30;17.23;;;12.80;99.90;;;;;;4960865;28;20066;-68
2021/01/22 07:39:49;;;;;;;48.10;17.77;;;12.90;99.90;;;;;;4961457;28;20668;-70
2021/01/22 07:42:20;;;;;;;61.27;18.37;;;12.90;99.90;;;;;;4967223;28;20093;-69
2021/01/22 07:44:49;;;;;;;54.95;21.15;;;12.90;99.90;;;;;;4961575;28;20296;-69
2021/01/22 07:47:30;;;;;;;43.90;16.65;;;12.90;99.90;;;;;;4971898;28;20049;-69
2021/01/22 07:49:59;;;;;;;53.80;19.17;;;12.90;99.90;;;;;;4969748;28;20642;-69
2021/01/22 07:52:25;;;;;;;;;;;12.90;99.90;;;;;;4968828;28;20090;-68
2021/01/22 07:54:53;;;;;;;53.85;19.70;;;13.00;99.90;;;;;;4975168;28;19973;-68
2021/01/22 07:57:22;;;;;;;50.38;18.67;;;13.00;99.90;;;;;;4967533;28;20091;-68
2021/01/22 07:59:49;;;;;;;56.60;18.38;;;13.10;99.90;;;;;;4968859;28;20050;-69
2021/01/22 08:02:23;;;;;;;46.25;18.85;;;13.10;99.90;;;;;;4967552;28;20046;-69
2021/01/22 08:05:01;;;;;;;56.45;18.33;;;13.20;99.90;;;;;;4969340;28;20878;-69
2021/01/22 08:07:36;;;;;;;48.03;18.52;;;13.20;99.90;;;;;;4973815;28;20137;-68
2021/01/22 08:10:05;;;;;;;36.65;16.00;;;13.20;99.90;;;;;;4972163;28;20046;-68
2021/01/22 08:12:32;;;;;;;46.17;18.17;;;13.30;99.90;;;;;;4967815;28;20019;-68
2021/01/22 08:15:00;;;;;;;47.17;17.85;;;13.40;99.90;;;;;;4972401;28;20114;-68
2021/01/22 08:17:26;;;;;;;43.10;17.67;;;13.40;99.90;;;;;;4972514;28;20051;-68
2021/01/22 08:19:53;;;;;;;35.28;16.38;;;13.50;99.90;;;;;;4971399;28;20428;-68
2021/01/22 08:22:20;;;;;;;38.25;16.50;;;13.40;99.90;;;;;;4965577;28;20402;-68
2021/01/22 08:24:50;;;;;;;38.92;18.55;;;13.40;99.90;;;;;;4975589;28;20276;-68
2021/01/22 08:27:22;;;;;;;39.55;17.17;;;13.40;99.90;;;;;;4974377;28;20031;-68
2021/01/22 08:29:50;;;;;;;43.60;18.10;;;13.40;99.90;;;;;;4977050;28;20038;-68
2021/01/22 08:32:18;;;;;;;34.35;16.92;;;13.40;99.90;;;;;;4972632;28;20098;-68
2021/01/22 08:34:46;;;;;;;39.45;16.80;;;13.50;99.90;;;;;;4970119;28;20042;-67
2021/01/22 08:37:15;;;;;;;36.60;18.27;;;13.50;99.90;;;;;;4976964;28;20035;-66
2021/01/22 08:42:17;;;;;;;51.50;20.13;;;13.50;99.90;;;;;;5072040;23;19926;-68
2021/01/22 08:44:58;;;;;;;46.55;20.60;;;13.60;99.90;;;;;;4984764;28;20037;-69
2021/01/22 08:47:26;;;;;;;45.03;18.15;;;13.60;99.90;;;;;;4984335;28;20118;-68
2021/01/22 08:49:54;;;;;;;38.25;18.67;;;13.70;99.90;;;;;;4988892;28;20149;-68
2021/01/22 08:52:21;;;;;;;33.65;16.33;;;13.70;99.90;;;;;;4991468;28;20146;-68
2021/01/22 08:54:50;;;;;;;29.40;15.68;;;13.70;99.90;;;;;;4988853;28;20501;-69
2021/01/22 08:57:17;;;;;;;35.10;16.13;;;13.80;99.90;;;;;;4984500;28;20032;-69
2021/01/22 08:59:59;;;;;;;40.60;17.83;;;13.80;99.90;;;;;;4995243;28;20037;-68
2021/01/22 09:02:40;;;;;;;35.58;16.25;;;13.90;99.90;;;;;;4989461;28;20341;-68
2021/01/22 09:05:10;;;;;;;30.20;15.30;;;13.90;99.90;;;;;;4988544;28;20069;-69
2021/01/22 09:07:37;;;;;;;38.25;15.43;;;13.90;99.90;;;;;;4994091;28;20422;-69
2021/01/22 09:10:06;;;;;;;32.95;14.25;;;13.90;99.90;;;;;;4986652;28;20062;-69
2021/01/22 09:12:33;;;;;;;34.25;14.07;;;13.90;99.90;;;;;;4981451;28;20034;-69
2021/01/22 09:15:07;;;;;;;30.02;13.63;;;13.90;99.90;;;;;;4989952;28;20030;-69
2021/01/22 09:17:41;;;;;;;35.42;14.13;;;13.90;99.90;;;;;;4993009;28;20057;-69
2021/01/22 09:20:13;;;;;;;34.60;14.15;;;13.90;99.90;;;;;;4993522;28;20073;-68
2021/01/22 09:22:40;;;;;;;29.45;11.93;;;13.90;99.90;;;;;;4983918;28;20030;-68
2021/01/22 09:25:10;;;;;;;24.73;11.15;;;13.90;99.90;;;;;;4986923;28;20294;-68
2021/01/22 09:27:38;;;;;;;23.10;11.18;;;13.90;99.90;;;;;;4987082;28;20033;-67
2021/01/22 09:30:07;;;;;;;24.85;9.90;;;13.80;99.90;;;;;;4985660;28;20042;-67
2021/01/22 09:32:33;;;;;;;29.85;12.55;;;13.80;99.90;;;;;;4989541;28;20338;-68
2021/01/22 09:35:00;;;;;;;34.75;12.00;;;13.80;99.90;;;;;;4982558;28;20383;-68
2021/01/22 09:37:27;;;;;;;19.38;9.60;;;13.80;99.90;;;;;;4988562;28;20026;-69
2021/01/22 09:39:53;;;;;;;28.02;10.70;;;13.70;99.90;;;;;;4985810;28;20090;-69
2021/01/22 09:42:20;;;;;;;32.17;9.93;;;13.80;99.90;;;;;;4968909;28;20063;-67
2021/01/22 09:44:47;;;;;;;22.02;10.07;;;13.70;99.90;;;;;;4973024;28;20035;-67
2021/01/22 09:47:13;;;;;;;29.27;10.13;;;13.70;99.90;;;;;;4976420;28;20053;-69
2021/01/22 09:49:40;;;;;;;25.75;9.50;;;13.70;99.90;;;;;;4964548;28;20039;-69
2021/01/22 09:52:07;;;;;;;29.08;8.77;;;13.70;99.90;;;;;;4972142;28;20031;-68
2021/01/22 09:54:33;;;;;;;27.27;8.77;;;13.70;99.90;;;;;;4973840;28;20077;-68
2021/01/22 09:57:00;;;;;;;27.05;9.13;;;13.70;99.90;;;;;;4973815;28;20032;-68
2021/01/22 09:59:26;;;;;;;28.27;7.43;;;13.80;99.90;;;;;;4974278;28;20031;-68
2021/01/22 10:01:53;;;;;;;23.50;6.63;;;13.80;99.90;;;;;;4967589;28;20039;-69
2021/01/22 10:04:20;;;;;;;22.50;5.40;;;13.80;99.90;;;;;;4974639;28;20071;-69
2021/01/22 10:06:46;;;;;;;18.25;5.95;;;13.90;99.90;;;;;;4975156;28;20035;-68
2021/01/22 10:09:13;;;;;;;15.07;5.43;;;13.90;99.90;;;;;;4974563;28;20089;-68
2021/01/22 10:11:41;;;;;;;18.85;5.15;;;13.90;99.90;;;;;;4967754;28;20115;-68
2021/01/22 10:14:08;;;;;;;21.17;4.78;;;13.90;99.90;;;;;;4969222;28;20051;-69
2021/01/22 10:16:35;;;;;;;19.13;5.40;;;14.00;99.90;;;;;;4975124;28;20029;-68
2021/01/22 10:19:02;;;;;;;17.20;5.00;;;14.00;99.90;;;;;;4969941;28;20346;-68
2021/01/22 10:21:29;;;;;;;18.85;5.20;;;13.90;99.90;;;;;;4970309;28;20053;-68
2021/01/22 10:23:56;;;;;;;17.80;4.65;;;13.90;99.90;;;;;;4974279;28;20042;-69
2021/01/22 10:26:23;;;;;;;19.40;6.20;;;13.90;99.90;;;;;;4971023;28;20382;-68
2021/01/22 10:28:51;;;;;;;17.60;5.25;;;13.90;99.90;;;;;;4975110;28;20049;-69
2021/01/22 10:31:19;;;;;;;18.63;5.20;;;13.90;99.90;;;;;;4966655;28;20038;-69
2021/01/22 10:33:47;;;;;;;23.27;6.25;;;13.90;99.90;;;;;;4973185;28;20268;-68
2021/01/22 10:36:15;;;;;;;17.67;5.40;;;13.90;99.90;;;;;;4972316;28;20034;-68
2021/01/22 10:38:41;;;;;;;20.02;5.43;;;13.80;99.90;;;;;;4974830;28;20041;-68
2021/01/22 10:41:08;;;;;;;21.08;5.97;;;13.80;99.90;;;;;;4960330;28;20042;-69
2021/01/22 10:43:35;;;;;;;22.90;6.13;;;13.80;99.90;;;;;;4961128;28;20035;-68
2021/01/22 10:46:02;;;;;;;21.27;6.45;;;13.70;99.90;;;;;;4972758;28;20038;-69
2021/01/22 10:48:30;;;;;;;19.65;6.10;;;13.70;99.90;;;;;;4967779;28;20027;-67
2021/01/22 10:50:56;;;;;;;21.20;5.72;;;13.70;99.90;;;;;;4963844;28;20041;-68
2021/01/22 10:53:24;;;;;;;18.58;5.45;;;13.70;99.90;;;;;;4967243;28;20377;-68
2021/01/22 10:55:51;;;;;;;30.52;6.63;;;13.70;99.90;;;;;;4962928;28;20477;-68
2021/01/22 10:58:18;;;;;;;24.17;7.13;;;13.70;99.90;;;;;;4972892;28;20338;-68
2021/01/22 11:00:45;;;;;;;20.95;7.40;;;13.70;99.90;;;;;;4965632;28;20297;-68
2021/01/22 11:03:12;;;;;;;23.63;7.25;;;13.70;99.90;;;;;;4969269;28;20294;-68
2021/01/22 11:05:38;;;;;;;26.02;8.65;;;13.70;99.90;;;;;;4972454;28;20129;-68
2021/01/22 11:08:05;;;;;;;18.05;7.75;;;13.70;99.90;;;;;;4965378;28;20066;-69
2021/01/22 11:10:32;;;;;;;32.10;8.52;;;13.70;99.90;;;;;;4973674;28;20420;-67
2021/01/22 11:12:59;;;;;;;21.80;8.85;;;13.80;99.90;;;;;;4970780;28;20388;-67
2021/01/22 11:15:27;;;;;;;24.67;10.48;;;13.80;99.90;;;;;;4972706;28;20082;-68
2021/01/22 11:17:53;;;;;;;31.77;13.88;;;13.80;99.90;;;;;;4974963;28;20030;-68
2021/01/22 11:20:21;;;;;;;24.45;10.82;;;13.80;99.90;;;;;;4963907;28;20115;-68
2021/01/22 11:22:48;;;;;;;24.15;12.32;;;13.80;99.90;;;;;;4967254;28;20078;-68
2021/01/22 11:25:15;;;;;;;30.88;12.98;;;13.70;99.90;;;;;;4969752;28;20029;-68
2021/01/22 11:27:42;;;;;;;31.77;13.25;;;13.80;99.90;;;;;;4974799;28;20038;-69
2021/01/22 11:30:10;;;;;;;23.30;12.63;;;13.70;99.90;;;;;;4971641;28;20046;-68
2021/01/22 11:32:37;;;;;;;28.40;13.23;;;13.70;99.90;;;;;;4966151;28;20027;-68
2021/01/22 11:35:05;;;;;;;31.92;14.25;;;13.70;99.90;;;;;;4969975;28;20137;-68
2021/01/22 11:37:32;;;;;;;24.92;15.18;;;13.70;99.90;;;;;;4972958;28;20029;-68
2021/01/22 11:39:59;;;;;;;27.30;14.10;;;13.70;99.90;;;;;;4970324;28;20039;-68
2021/01/22 11:42:25;;;;;;;31.73;15.10;;;13.60;99.90;;;;;;4965571;28;20342;-69
2021/01/22 11:44:52;;;;;;;32.20;15.98;;;13.60;99.90;;;;;;4973807;28;20113;-67
2021/01/22 11:47:18;;;;;;;34.75;15.98;;;13.60;99.90;;;;;;4969005;28;20053;-67
2021/01/22 11:49:45;;;;;;;28.42;15.43;;;13.60;99.90;;;;;;4974052;28;20149;-67
2021/01/22 11:52:12;;;;;;;37.72;17.55;;;13.50;99.90;;;;;;4971109;28;20042;-68
2021/01/22 11:54:38;;;;;;;30.83;15.85;;;13.50;99.90;;;;;;4972142;28;20416;-68
2021/01/22 11:57:06;;;;;;;30.50;16.13;;;13.50;99.90;;;;;;4969287;28;20317;-67
2021/01/22 11:59:33;;;;;;;30.75;15.70;;;13.50;99.90;;;;;;4968222;28;20036;-68
2021/01/22 12:02:00;;;;;;;37.90;15.88;;;13.40;99.90;;;;;;4967049;28;20046;-68
2021/01/22 12:04:27;;;;;;;33.55;14.82;;;13.40;99.90;;;;;;4970580;28;20114;-68
2021/01/22 12:06:54;;;;;;;31.85;16.20;;;13.40;99.90;;;;;;4974298;28;20659;-67
2021/01/22 12:09:21;;;;;;;27.30;15.98;;;13.40;99.90;;;;;;4972347;28;20114;-67
2021/01/22 12:11:47;;;;;;;31.52;16.88;;;13.30;99.90;;;;;;4968439;28;20386;-67
2021/01/22 12:14:14;;;;;;;26.20;16.00;;;13.40;99.90;;;;;;4966838;28;20061;-68
2021/01/22 12:16:41;;;;;;;36.72;17.73;;;13.30;99.90;;;;;;4974302;28;20389;-67
2021/01/22 12:19:07;;;;;;;35.47;16.02;;;13.30;99.90;;;;;;4971737;28;20197;-68
2021/01/22 12:21:34;;;;;;;30.55;15.32;;;13.30;99.90;;;;;;4972411;28;20058;-68
2021/01/22 12:24:01;;;;;;;38.03;17.27;;;13.20;99.90;;;;;;4975293;28;20126;-67
2021/01/22 12:26:28;;;;;;;30.90;16.45;;;13.20;99.90;;;;;;4966957;28;20030;-68
2021/01/22 12:28:54;;;;;;;36.55;17.02;;;13.20;99.90;;;;;;4973970;28;20031;-68
2021/01/22 12:31:21;;;;;;;33.60;17.70;;;13.10;99.90;;;;;;4972742;28;20019;-67
2021/01/22 12:33:48;;;;;;;26.55;15.00;;;13.10;99.90;;;;;;4973880;28;20031;-67
2021/01/22 12:36:14;;;;;;;35.17;16.27;;;13.10;99.90;;;;;;4966819;28;20050;-67
2021/01/22 12:38:41;;;;;;;33.28;17.48;;;13.10;99.90;;;;;;4970921;28;20039;-67
2021/01/22 12:41:07;;;;;;;40.97;17.58;;;13.00;99.90;;;;;;4975251;28;20035;-67
2021/01/22 12:43:34;;;;;;;35.03;17.27;;;13.00;99.90;;;;;;4971883;28;20309;-67
2021/01/22 12:46:01;;;;;;;33.45;16.58;;;12.90;99.90;;;;;;4975485;28;20368;-68
2021/01/22 12:48:28;;;;;;;33.10;18.55;;;12.80;99.90;;;;;;4967126;28;20201;-68
2021/01/22 12:50:55;;;;;;;32.15;16.98;;;12.80;99.90;;;;;;4976122;28;20030;-68
2021/01/22 12:53:22;;;;;;;31.10;16.02;;;12.70;99.90;;;;;;4970437;28;20085;-69